createdAt,value
2022-10-09T00:00:40.439Z,96.4
2022-10-09T00:01:56.737Z,96.5
2022-10-09T00:03:13.034Z,96.4
2022-10-09T00:04:29.328Z,96.4
2022-10-09T00:05:45.608Z,96.6
2022-10-09T00:07:01.904Z,96.7
2022-10-09T00:08:18.205Z,96.8
2022-10-09T00:09:34.500Z,97.1
2022-10-09T00:10:50.788Z,97.3
2022-10-09T00:12:07.084Z,97.3
2022-10-09T00:13:23.368Z,97.3
2022-10-09T00:14:39.674Z,97.4
2022-10-09T00:15:54.983Z,97.7
2022-10-09T00:17:11.261Z,97.5
2022-10-09T00:18:27.572Z,97.4
2022-10-09T00:19:43.861Z,97.3
2022-10-09T00:21:00.145Z,97.2
2022-10-09T00:22:16.432Z,97.7
2022-10-09T00:23:32.744Z,97.9
2022-10-09T00:24:49.035Z,98
2022-10-09T00:26:05.317Z,98
2022-10-09T00:27:21.623Z,98
2022-10-09T00:28:37.914Z,97.9
2022-10-09T00:29:54.195Z,97.9
2022-10-09T00:31:10.492Z,98
2022-10-09T00:32:25.797Z,98
2022-10-09T00:33:42.098Z,98
2022-10-09T00:34:58.383Z,97.9
2022-10-09T00:36:14.690Z,98
2022-10-09T00:37:30.979Z,97.9
2022-10-09T00:38:47.267Z,97.8
2022-10-09T00:40:03.567Z,97.7
2022-10-09T00:41:19.861Z,97.5
2022-10-09T00:42:36.146Z,97.5
2022-10-09T00:43:52.433Z,97.5
2022-10-09T00:45:08.728Z,97.4
2022-10-09T00:46:25.023Z,97.4
2022-10-09T00:47:41.310Z,97.5
2022-10-09T00:48:56.617Z,97.5
2022-10-09T00:50:12.916Z,97.5
2022-10-09T00:51:29.206Z,97.7
2022-10-09T00:52:45.506Z,97.9
2022-10-09T00:54:01.808Z,98
2022-10-09T00:55:18.097Z,97.9
2022-10-09T00:56:34.394Z,97.7
2022-10-09T00:57:50.689Z,97.4
2022-10-09T00:59:06.963Z,97.2
2022-10-09T01:00:23.268Z,97.1
2022-10-09T01:01:39.551Z,96.8
2022-10-09T01:02:55.852Z,96.6
2022-10-09T01:04:12.135Z,96.6
2022-10-09T01:05:27.461Z,96.6
2022-10-09T01:06:43.710Z,96.5
2022-10-09T01:08:00.014Z,96.4
2022-10-09T01:09:16.293Z,96.3
2022-10-09T01:10:32.585Z,96.2
2022-10-09T01:11:48.884Z,96.2
2022-10-09T01:13:05.185Z,96.2
2022-10-09T01:14:21.483Z,96.3
2022-10-09T01:15:37.766Z,96.3
2022-10-09T01:16:54.070Z,96.3
2022-10-09T01:18:10.351Z,96.3
2022-10-09T01:19:26.652Z,96.4
2022-10-09T01:20:42.940Z,96.3
2022-10-09T01:21:58.250Z,96.4
2022-10-09T01:23:14.545Z,96.8
2022-10-09T01:24:30.830Z,96.9
2022-10-09T01:25:47.121Z,97.1
2022-10-09T01:27:03.431Z,97.2
2022-10-09T01:28:19.722Z,97.2
2022-10-09T01:29:35.038Z,97.2
2022-10-09T01:30:51.319Z,97.2
2022-10-09T01:32:07.619Z,97.2
2022-10-09T01:33:23.916Z,97.2
2022-10-09T01:34:40.197Z,97.2
2022-10-09T01:35:56.485Z,97.2
2022-10-09T01:37:12.793Z,97.2
2022-10-09T01:38:29.080Z,97
2022-10-09T01:39:45.381Z,96.9
2022-10-09T01:41:01.665Z,96.7
2022-10-09T01:42:17.952Z,96.7
2022-10-09T01:43:34.244Z,96.5
2022-10-09T01:44:50.553Z,96.5
2022-10-09T01:46:05.850Z,96.4
2022-10-09T01:47:22.148Z,96.3
2022-10-09T01:48:38.446Z,96.2
2022-10-09T01:49:54.739Z,96.1
2022-10-09T01:51:11.035Z,96.1
2022-10-09T01:52:27.316Z,96.1
2022-10-09T01:53:43.617Z,96.1
2022-10-09T01:54:59.909Z,96
2022-10-09T01:56:16.190Z,96
2022-10-09T01:57:32.495Z,96
2022-10-09T01:58:48.784Z,96
2022-10-09T02:00:05.077Z,96.2
2022-10-09T02:01:21.376Z,96.3
2022-10-09T02:02:36.678Z,96.3
2022-10-09T02:03:52.982Z,96.4
2022-10-09T02:05:09.270Z,96.5
2022-10-09T02:06:25.557Z,96.6
2022-10-09T02:07:41.861Z,96.7
2022-10-09T02:08:58.140Z,96.7
2022-10-09T02:10:14.434Z,96.8
2022-10-09T02:11:30.736Z,97
2022-10-09T02:12:47.021Z,97
2022-10-09T02:14:03.321Z,97
2022-10-09T02:15:19.604Z,97
2022-10-09T02:16:35.898Z,97.3
2022-10-09T02:17:52.199Z,97.4
2022-10-09T02:19:07.511Z,97.5
2022-10-09T02:20:23.791Z,97.7
2022-10-09T02:21:40.094Z,98
2022-10-09T02:22:56.386Z,98.1
2022-10-09T02:24:12.671Z,98.1
2022-10-09T02:25:28.962Z,98.1
2022-10-09T02:26:45.267Z,98.1
2022-10-09T02:28:01.558Z,98.2
2022-10-09T02:29:17.851Z,98.2
2022-10-09T02:30:34.152Z,98.2
2022-10-09T02:31:50.432Z,98.3
2022-10-09T02:33:06.723Z,98.5
2022-10-09T02:34:23.032Z,98.9
2022-10-09T02:35:38.340Z,99.2
2022-10-09T02:36:54.618Z,99.4
2022-10-09T02:38:10.916Z,99.6
2022-10-09T02:39:27.217Z,99.8
2022-10-09T02:40:43.497Z,99.9
2022-10-09T02:41:59.800Z,99.8
2022-10-09T02:43:16.094Z,99.8
2022-10-09T02:44:32.392Z,99.9
2022-10-09T02:45:48.686Z,99.9
2022-10-09T02:47:04.971Z,100
2022-10-09T02:48:21.257Z,100
2022-10-09T02:49:37.551Z,100
2022-10-09T02:50:53.852Z,100
2022-10-09T02:52:09.159Z,100
2022-10-09T02:53:25.455Z,100
2022-10-09T02:54:41.739Z,100
2022-10-09T02:55:58.037Z,100
2022-10-09T02:57:14.329Z,100
2022-10-09T02:58:30.618Z,100
2022-10-09T02:59:46.908Z,100
2022-10-09T03:01:03.208Z,100
2022-10-09T03:02:19.498Z,100
2022-10-09T03:03:35.794Z,100
2022-10-09T03:04:52.089Z,100
2022-10-09T03:06:08.371Z,100
2022-10-09T03:07:24.684Z,100
2022-10-09T03:08:39.978Z,100
2022-10-09T03:09:56.268Z,100
2022-10-09T03:11:12.574Z,100
2022-10-09T03:12:28.872Z,100
2022-10-09T03:13:45.147Z,100
2022-10-09T03:15:01.455Z,100
2022-10-09T03:16:17.746Z,100
2022-10-09T03:17:34.034Z,100
2022-10-09T03:18:50.330Z,99.8
2022-10-09T03:20:06.620Z,99.8
2022-10-09T03:21:22.916Z,99.6
2022-10-09T03:22:39.201Z,99.5
2022-10-09T03:23:55.490Z,99.5
2022-10-09T03:25:10.799Z,99.3
2022-10-09T03:26:27.100Z,99.2
2022-10-09T03:27:43.395Z,99.2
2022-10-09T03:28:59.677Z,99.2
2022-10-09T03:30:15.978Z,99.1
2022-10-09T03:31:32.274Z,99
2022-10-09T03:32:48.577Z,98.8
2022-10-09T03:34:04.866Z,98.8
2022-10-09T03:35:21.147Z,98.8
2022-10-09T03:36:37.448Z,98.8
2022-10-09T03:37:53.732Z,99.1
2022-10-09T03:39:10.034Z,99.2
2022-10-09T03:40:26.325Z,99.3
2022-10-09T03:41:41.638Z,99.2
2022-10-09T03:42:57.919Z,99.2
2022-10-09T03:44:14.211Z,99.3
2022-10-09T03:45:30.517Z,99.4
2022-10-09T03:46:46.796Z,99.5
2022-10-09T03:48:03.101Z,99.5
2022-10-09T03:49:19.394Z,99.5
2022-10-09T03:50:35.695Z,99.4
2022-10-09T03:51:51.972Z,99.4
2022-10-09T03:53:08.260Z,99.4
2022-10-09T03:54:24.561Z,99.4
2022-10-09T03:55:40.848Z,99.4
2022-10-09T03:56:57.143Z,99.4
2022-10-09T03:58:12.469Z,99.4
2022-10-09T03:59:28.759Z,99.3
2022-10-09T04:00:45.055Z,99.3
2022-10-09T04:02:01.336Z,99.2
2022-10-09T04:03:17.626Z,99.3
2022-10-09T04:04:33.930Z,99.4
2022-10-09T04:05:50.216Z,99.5
2022-10-09T04:07:06.507Z,99.7
2022-10-09T04:08:22.802Z,100
2022-10-09T04:09:39.092Z,100
2022-10-09T04:10:55.390Z,100
2022-10-09T04:12:11.681Z,100
2022-10-09T04:13:27.976Z,100
2022-10-09T04:14:43.282Z,100
2022-10-09T04:15:59.589Z,100
2022-10-09T04:17:15.863Z,100
2022-10-09T04:18:32.159Z,100
2022-10-09T04:19:48.463Z,100
2022-10-09T04:21:04.750Z,100
2022-10-09T04:22:21.041Z,100
2022-10-09T04:23:37.334Z,100
2022-10-09T04:24:53.629Z,100
2022-10-09T04:26:09.930Z,100
2022-10-09T04:27:26.220Z,100
2022-10-09T04:28:42.517Z,100
2022-10-09T04:29:58.805Z,100
2022-10-09T04:31:14.119Z,100
2022-10-09T04:32:30.401Z,100
2022-10-09T04:33:46.703Z,100
2022-10-09T04:35:02.987Z,100
2022-10-09T04:36:19.292Z,100
2022-10-09T04:37:35.578Z,100
2022-10-09T04:38:51.882Z,100
2022-10-09T04:40:08.157Z,100
2022-10-09T04:41:24.464Z,100
2022-10-09T04:42:40.755Z,100
2022-10-09T04:43:57.039Z,100
2022-10-09T04:45:13.341Z,100
2022-10-09T04:46:29.641Z,100
2022-10-09T04:47:44.946Z,100
2022-10-09T04:49:01.225Z,100
2022-10-09T04:50:17.534Z,100
2022-10-09T04:51:33.772Z,100
2022-10-09T04:52:50.009Z,100
2022-10-09T04:54:06.257Z,100
2022-10-09T04:55:22.544Z,100
2022-10-09T04:56:38.808Z,100
2022-10-09T04:57:55.041Z,100
2022-10-09T04:59:11.281Z,100
2022-10-09T05:00:27.524Z,100
2022-10-09T05:01:43.774Z,100
2022-10-09T05:03:00.007Z,100
2022-10-09T05:04:15.265Z,100
2022-10-09T05:05:31.497Z,100
2022-10-09T05:06:47.743Z,100
2022-10-09T05:08:03.969Z,100
2022-10-09T05:09:20.227Z,100
2022-10-09T05:10:36.456Z,100
2022-10-09T05:11:52.691Z,100
2022-10-09T05:13:08.928Z,99.9
2022-10-09T05:14:25.174Z,99.9
2022-10-09T05:15:41.412Z,99.8
2022-10-09T05:16:57.646Z,99.9
2022-10-09T05:18:13.885Z,99.8
2022-10-09T05:19:30.128Z,99.8
2022-10-09T05:20:45.391Z,99.8
2022-10-09T05:22:01.621Z,99.8
2022-10-09T05:23:17.872Z,99.8
2022-10-09T05:24:34.114Z,99.8
2022-10-09T05:25:50.340Z,99.7
2022-10-09T05:27:06.575Z,99.7
2022-10-09T05:28:22.822Z,99.8
2022-10-09T05:29:39.052Z,99.8
2022-10-09T05:30:55.297Z,99.8
2022-10-09T05:32:11.549Z,99.8
2022-10-09T05:33:27.774Z,100
2022-10-09T05:34:44.016Z,100
2022-10-09T05:36:00.263Z,100
2022-10-09T05:37:15.519Z,100
2022-10-09T05:38:31.000Z,100
2022-10-09T05:39:47.999Z,100
2022-10-09T05:41:04.238Z,100
2022-10-09T05:42:20.479Z,100
2022-10-09T05:43:36.714Z,100
2022-10-09T05:44:51.960Z,100
2022-10-09T05:46:08.211Z,100
2022-10-09T05:47:24.452Z,100
2022-10-09T05:48:40.678Z,100
2022-10-09T05:49:56.918Z,100
2022-10-09T05:51:13.168Z,100
2022-10-09T05:52:29.396Z,100
2022-10-09T05:53:45.637Z,100
2022-10-09T05:55:01.878Z,100
2022-10-09T05:56:18.122Z,100
2022-10-09T05:57:34.369Z,100
2022-10-09T05:58:50.610Z,100
2022-10-09T06:00:06.829Z,100
2022-10-09T06:01:22.103Z,100
2022-10-09T06:02:38.331Z,100
2022-10-09T06:03:54.569Z,100
2022-10-09T06:05:10.816Z,100
2022-10-09T06:06:27.057Z,100
2022-10-09T06:07:43.297Z,100
2022-10-09T06:08:59.534Z,100
2022-10-09T06:10:15.777Z,100
2022-10-09T06:11:32.003Z,100
2022-10-09T06:12:48.244Z,100
2022-10-09T06:14:04.487Z,100
2022-10-09T06:15:20.730Z,100
2022-10-09T06:16:36.972Z,100
2022-10-09T06:17:52.000Z,100
2022-10-09T06:19:08.453Z,100
2022-10-09T06:20:24.706Z,100
2022-10-09T06:21:40.930Z,100
2022-10-09T06:22:57.172Z,100
2022-10-09T06:24:13.418Z,100
2022-10-09T06:25:29.652Z,100
2022-10-09T06:26:45.884Z,100
2022-10-09T06:28:02.125Z,100
2022-10-09T06:29:18.376Z,100
2022-10-09T06:30:34.617Z,100
2022-10-09T06:31:50.843Z,100
2022-10-09T06:33:07.086Z,100
2022-10-09T06:34:22.344Z,100
2022-10-09T06:35:38.585Z,100
2022-10-09T06:36:54.828Z,100
2022-10-09T06:38:11.069Z,100
2022-10-09T06:39:27.294Z,100
2022-10-09T06:40:43.550Z,100
2022-10-09T06:41:59.782Z,100
2022-10-09T06:43:16.014Z,100
2022-10-09T06:44:32.254Z,100
2022-10-09T06:45:48.508Z,100
2022-10-09T06:47:04.738Z,100
2022-10-09T06:48:20.974Z,100
2022-10-09T06:49:37.220Z,100
2022-10-09T06:50:52.478Z,100
2022-10-09T06:52:08.710Z,100
2022-10-09T06:53:24.946Z,100
2022-10-09T06:54:41.183Z,100
2022-10-09T06:55:57.423Z,100
2022-10-09T06:57:13.673Z,100
2022-10-09T06:58:29.912Z,100
2022-10-09T06:59:46.140Z,100
2022-10-09T07:01:02.379Z,100
2022-10-09T07:02:18.623Z,99.7
2022-10-09T07:03:34.869Z,99.5
2022-10-09T07:04:51.106Z,99.3
2022-10-09T07:06:07.347Z,99.1
2022-10-09T07:07:22.597Z,98.8
2022-10-09T07:08:38.835Z,98.7
2022-10-09T07:09:55.064Z,98.5
2022-10-09T07:11:11.313Z,98.1
2022-10-09T07:12:27.546Z,97.5
2022-10-09T07:13:43.789Z,97.4
2022-10-09T07:15:00.036Z,97.2
2022-10-09T07:16:16.266Z,96.5
2022-10-09T07:17:32.510Z,96.4
2022-10-09T07:18:48.738Z,96.2
2022-10-09T07:20:04.984Z,96
2022-10-09T07:21:21.234Z,95.6
2022-10-09T07:22:37.467Z,95.4
2022-10-09T07:23:52.720Z,95.2
2022-10-09T07:25:08.960Z,94.7
2022-10-09T07:26:25.191Z,94.6
2022-10-09T07:27:41.437Z,94.2
2022-10-09T07:28:57.685Z,93.9
2022-10-09T07:30:13.906Z,93.7
2022-10-09T07:31:30.148Z,93.5
2022-10-09T07:32:46.401Z,93.5
2022-10-09T07:34:02.639Z,93.3
2022-10-09T07:35:18.877Z,93.3
2022-10-09T07:36:35.109Z,92.9
2022-10-09T07:37:51.343Z,92.4
2022-10-09T07:39:07.589Z,92.1
2022-10-09T07:40:22.844Z,91.4
2022-10-09T07:41:39.077Z,91.4
2022-10-09T07:42:55.315Z,91
2022-10-09T07:44:11.553Z,90.1
2022-10-09T07:45:27.797Z,89.8
2022-10-09T07:46:44.035Z,89.5
2022-10-09T07:48:00.273Z,88.7
2022-10-09T07:49:16.519Z,88
2022-10-09T07:50:32.748Z,87.1
2022-10-09T07:51:49.003Z,85.7
2022-10-09T07:53:05.241Z,85
2022-10-09T07:54:21.476Z,84.9
2022-10-09T07:55:37.715Z,83.8
2022-10-09T07:56:52.971Z,82.3
2022-10-09T07:58:09.205Z,80.4
2022-10-09T07:59:25.454Z,78.6
2022-10-09T08:00:41.691Z,77.9
2022-10-09T08:01:57.914Z,77.5
2022-10-09T08:03:14.158Z,76.5
2022-10-09T08:04:30.407Z,75.2
2022-10-09T08:05:46.631Z,73.7
2022-10-09T08:07:02.883Z,72.4
2022-10-09T08:08:19.110Z,71.1
2022-10-09T08:09:35.352Z,69.9
2022-10-09T08:10:51.598Z,68.8
2022-10-09T08:12:07.838Z,68.2
2022-10-09T08:13:23.095Z,68.7
2022-10-09T08:14:39.324Z,66.9
2022-10-09T08:15:55.573Z,67
2022-10-09T08:17:11.805Z,65.4
2022-10-09T08:18:28.052Z,64
2022-10-09T08:19:44.286Z,63.3
2022-10-09T08:21:00.510Z,61.5
2022-10-09T08:22:16.755Z,61.3
2022-10-09T08:23:32.996Z,60.5
2022-10-09T08:24:49.226Z,62
2022-10-09T08:26:05.483Z,59
2022-10-09T08:27:21.710Z,60.2
2022-10-09T08:28:37.948Z,60.2
2022-10-09T08:29:53.205Z,60.5
2022-10-09T08:31:09.453Z,59.9
2022-10-09T08:32:25.690Z,59
2022-10-09T08:33:41.928Z,57.5
2022-10-09T08:34:58.167Z,57.5
2022-10-09T08:36:14.394Z,57.4
2022-10-09T08:37:30.633Z,57.6
2022-10-09T08:38:46.881Z,57.1
2022-10-09T08:40:03.109Z,56.7
2022-10-09T08:41:19.340Z,56.9
2022-10-09T08:42:35.595Z,55.1
2022-10-09T08:43:51.816Z,55.3
2022-10-09T08:45:08.075Z,53.3
2022-10-09T08:46:23.324Z,53.3
2022-10-09T08:47:39.548Z,52.7
2022-10-09T08:48:55.799Z,51.7
2022-10-09T08:51:28.281Z,52.2
2022-10-09T08:52:44.517Z,50.9
2022-10-09T08:54:00.757Z,50.9
2022-10-09T08:55:16.997Z,49.2
2022-10-09T08:56:33.221Z,50.2
2022-10-09T08:57:49.462Z,51.4
2022-10-09T08:59:05.694Z,53.2
2022-10-09T09:00:21.936Z,52.2
2022-10-09T09:01:38.182Z,50.9
2022-10-09T09:02:53.445Z,48.5
2022-10-09T09:04:09.675Z,48.7
2022-10-09T09:05:25.907Z,49.4
2022-10-09T09:06:42.146Z,49.2
2022-10-09T09:07:58.388Z,48.6
2022-10-09T09:09:14.618Z,47.4
2022-10-09T09:10:30.860Z,48.1
2022-10-09T09:11:47.103Z,48.6
2022-10-09T09:13:03.342Z,47.9
2022-10-09T09:14:19.577Z,47.8
2022-10-09T09:15:35.824Z,46.6
2022-10-09T09:16:52.063Z,46.8
2022-10-09T09:18:08.303Z,48.7
2022-10-09T09:19:23.544Z,47
2022-10-09T09:20:39.790Z,48
2022-10-09T09:21:56.023Z,47.7
2022-10-09T09:23:12.277Z,48.9
2022-10-09T09:24:28.498Z,47.4
2022-10-09T09:25:44.741Z,46.9
2022-10-09T09:27:00.982Z,48.6
2022-10-09T09:28:17.216Z,47
2022-10-09T09:29:33.472Z,46.8
2022-10-09T09:30:49.695Z,48
2022-10-09T09:32:05.948Z,47.2
2022-10-09T09:33:22.183Z,47
2022-10-09T09:34:38.406Z,46.8
2022-10-09T09:35:53.671Z,45.6
2022-10-09T09:37:09.908Z,45.8
2022-10-09T09:38:26.148Z,44.6
2022-10-09T09:39:42.377Z,43.8
2022-10-09T09:40:58.636Z,46.3
2022-10-09T09:42:14.861Z,44.9
2022-10-09T09:43:31.112Z,45.6
2022-10-09T09:44:47.346Z,43.3
2022-10-09T09:46:03.572Z,42.9
2022-10-09T09:47:19.828Z,44.4
2022-10-09T09:48:36.060Z,45.1
2022-10-09T09:49:52.305Z,44.8
2022-10-09T09:51:08.544Z,43.7
2022-10-09T09:52:23.799Z,44.4
2022-10-09T09:53:40.021Z,42.6
2022-10-09T09:54:56.271Z,42.9
2022-10-09T09:56:12.503Z,45.1
2022-10-09T09:57:28.748Z,44.3
2022-10-09T09:58:44.993Z,44.5
2022-10-09T10:00:00.249Z,43.6
2022-10-09T10:01:16.473Z,42.4
2022-10-09T10:02:32.726Z,43.1
2022-10-09T10:03:48.955Z,41.7
2022-10-09T10:05:05.208Z,41.3
2022-10-09T10:06:21.440Z,40.7
2022-10-09T10:07:37.682Z,41.4
2022-10-09T10:08:53.926Z,41.6
2022-10-09T10:10:10.154Z,42.1
2022-10-09T10:11:26.400Z,41.9
2022-10-09T10:12:42.640Z,41.3
2022-10-09T10:13:58.872Z,40.3
2022-10-09T10:15:15.102Z,40.3
2022-10-09T10:16:30.365Z,40.6
2022-10-09T10:17:46.591Z,39.3
2022-10-09T10:19:02.843Z,40.1
2022-10-09T10:20:19.074Z,40
2022-10-09T10:21:35.323Z,40.1
2022-10-09T10:22:51.549Z,43.4
2022-10-09T10:24:07.793Z,42.1
2022-10-09T10:25:24.027Z,41.3
2022-10-09T10:26:40.273Z,40
2022-10-09T10:27:56.507Z,40.2
2022-10-09T10:29:12.746Z,39.5
2022-10-09T10:30:28.993Z,40
2022-10-09T10:31:45.216Z,40.3
2022-10-09T10:33:00.474Z,39.2
2022-10-09T10:34:16.725Z,39.1
2022-10-09T10:35:32.948Z,40.7
2022-10-09T10:36:49.195Z,36.9
2022-10-09T10:38:05.444Z,37.7
2022-10-09T10:39:21.668Z,38.5
2022-10-09T10:40:37.912Z,37.9
2022-10-09T10:41:54.141Z,40.1
2022-10-09T10:43:10.385Z,39.6
2022-10-09T10:44:26.629Z,37.8
2022-10-09T10:45:42.875Z,40
2022-10-09T10:46:59.111Z,37.5
2022-10-09T10:48:15.335Z,39
2022-10-09T10:49:30.593Z,38.3
2022-10-09T10:50:46.840Z,38.4
2022-10-09T10:52:03.077Z,36.4
2022-10-09T10:53:19.306Z,37.5
2022-10-09T10:54:35.546Z,37.8
2022-10-09T10:55:51.799Z,36.9
2022-10-09T10:57:08.036Z,36.7
2022-10-09T10:58:24.273Z,35.5
2022-10-09T10:59:40.506Z,35.5
2022-10-09T11:00:56.747Z,36.6
2022-10-09T11:02:12.980Z,38.2
2022-10-09T11:03:29.221Z,39.1
2022-10-09T11:04:45.462Z,38.7
2022-10-09T11:06:00.723Z,39.1
2022-10-09T11:07:16.955Z,37.2
2022-10-09T11:08:33.186Z,38.4
2022-10-09T11:09:49.428Z,39
2022-10-09T11:11:05.671Z,37
2022-10-09T11:12:21.908Z,38.5
2022-10-09T11:13:38.152Z,36.4
2022-10-09T11:14:54.391Z,38.7
2022-10-09T11:16:10.620Z,37.6
2022-10-09T11:17:26.863Z,37.2
2022-10-09T11:18:43.106Z,35.5
2022-10-09T11:19:59.347Z,35.9
2022-10-09T11:21:15.587Z,37.1
2022-10-09T11:22:30.835Z,35.5
2022-10-09T11:23:47.068Z,36.2
2022-10-09T11:25:03.324Z,35.9
2022-10-09T11:26:19.559Z,34.7
2022-10-09T11:27:35.784Z,33.8
2022-10-09T11:28:52.035Z,34.6
2022-10-09T11:30:08.274Z,34.8
2022-10-09T11:31:24.518Z,35.4
2022-10-09T11:32:40.754Z,35.3
2022-10-09T11:33:56.981Z,34.9
2022-10-09T11:35:13.233Z,36.2
2022-10-09T11:36:29.465Z,37.5
2022-10-09T11:37:45.705Z,36.2
2022-10-09T11:39:00.949Z,36.5
2022-10-09T11:40:17.000Z,35.9
2022-10-09T11:41:33.441Z,38
2022-10-09T11:42:49.677Z,37.6
2022-10-09T11:44:05.911Z,36.1
2022-10-09T11:45:22.158Z,35.5
2022-10-09T11:46:38.387Z,34
2022-10-09T11:47:54.624Z,36.2
2022-10-09T11:49:10.865Z,35.9
2022-10-09T11:50:27.109Z,32.9
2022-10-09T11:51:43.332Z,35.5
2022-10-09T11:52:59.582Z,33
2022-10-09T11:54:15.816Z,35.6
2022-10-09T11:55:31.067Z,36.7
2022-10-09T11:56:47.323Z,36.7
2022-10-09T11:58:03.553Z,35.2
2022-10-09T11:59:19.799Z,35.7
2022-10-09T12:00:36.032Z,35.1
2022-10-09T12:01:52.274Z,34.2
2022-10-09T12:03:08.497Z,35.5
2022-10-09T12:04:24.756Z,34
2022-10-09T12:05:40.992Z,36.4
2022-10-09T12:06:57.219Z,34.7
2022-10-09T12:08:13.456Z,34.2
2022-10-09T12:09:29.691Z,33.6
2022-10-09T12:10:45.931Z,33.3
2022-10-09T12:12:01.205Z,35.2
2022-10-09T12:13:17.435Z,33.6
2022-10-09T12:14:33.666Z,35.4
2022-10-09T12:15:49.901Z,36.6
2022-10-09T12:17:06.149Z,36.7
2022-10-09T12:18:22.383Z,38.3
2022-10-09T12:19:38.630Z,38.6
2022-10-09T12:20:54.865Z,36.5
2022-10-09T12:22:11.111Z,37.7
2022-10-09T12:23:27.345Z,37.4
2022-10-09T12:24:43.576Z,35.7
2022-10-09T12:25:59.813Z,35.4
2022-10-09T12:27:16.052Z,36.1
2022-10-09T12:28:31.307Z,35.5
2022-10-09T12:29:47.547Z,36.7
2022-10-09T12:31:03.787Z,38.4
2022-10-09T12:32:20.025Z,37
2022-10-09T12:33:36.278Z,35.9
2022-10-09T12:34:52.500Z,35.1
2022-10-09T12:36:08.744Z,35.5
2022-10-09T12:37:24.987Z,36.2
2022-10-09T12:38:41.217Z,36.8
2022-10-09T12:39:57.457Z,36.5
2022-10-09T12:41:13.693Z,37.2
2022-10-09T12:42:29.936Z,36.3
2022-10-09T12:43:46.174Z,35.2
2022-10-09T12:45:01.432Z,33.3
2022-10-09T12:46:17.680Z,32.7
2022-10-09T12:47:33.914Z,34
2022-10-09T12:48:50.145Z,35.1
2022-10-09T12:50:06.393Z,34.7
2022-10-09T12:51:22.618Z,35.5
2022-10-09T12:52:38.858Z,37.4
2022-10-09T12:53:55.096Z,38.4
2022-10-09T12:55:11.343Z,38.9
2022-10-09T12:56:27.570Z,39
2022-10-09T12:57:43.826Z,38.2
2022-10-09T12:59:00.056Z,38.8
2022-10-09T13:00:16.287Z,36.8
2022-10-09T13:01:31.543Z,36.6
2022-10-09T13:02:47.779Z,36.3
2022-10-09T13:04:04.027Z,36.4
2022-10-09T13:05:20.264Z,37.3
2022-10-09T13:06:36.506Z,39.3
2022-10-09T13:07:52.743Z,38
2022-10-09T13:09:08.978Z,38.2
2022-10-09T13:10:25.220Z,37.6
2022-10-09T13:11:41.462Z,37.5
2022-10-09T13:12:57.684Z,38.9
2022-10-09T13:14:13.934Z,36.6
2022-10-09T13:15:30.172Z,37.5
2022-10-09T13:16:46.402Z,38.5
2022-10-09T13:18:01.668Z,37.4
2022-10-09T13:19:17.904Z,36.7
2022-10-09T13:20:34.149Z,37.7
2022-10-09T13:21:50.389Z,38.8
2022-10-09T13:23:06.620Z,40.4
2022-10-09T13:24:22.852Z,39.5
2022-10-09T13:25:39.091Z,39.6
2022-10-09T13:26:55.334Z,38.3
2022-10-09T13:28:11.579Z,37.1
2022-10-09T13:29:27.807Z,38
2022-10-09T13:30:44.042Z,37.7
2022-10-09T13:32:00.282Z,38.2
2022-10-09T13:33:16.536Z,37.3
2022-10-09T13:34:31.774Z,37.9
2022-10-09T13:35:48.018Z,37.2
2022-10-09T13:37:04.259Z,36.8
2022-10-09T13:39:36.729Z,38.4
2022-10-09T13:40:52.968Z,39.3
2022-10-09T13:42:09.220Z,38.8
2022-10-09T13:43:25.452Z,38.3
2022-10-09T13:44:41.682Z,39.1
2022-10-09T13:45:57.917Z,40
2022-10-09T13:47:14.159Z,38.8
2022-10-09T13:48:30.394Z,38.8
2022-10-09T13:49:46.637Z,37.9
2022-10-09T13:51:01.891Z,39.9
2022-10-09T13:52:18.135Z,40.2
2022-10-09T13:53:34.372Z,38.8
2022-10-09T13:54:50.616Z,39.2
2022-10-09T13:56:06.845Z,38.6
2022-10-09T13:57:23.000Z,38.9
2022-10-09T13:58:39.316Z,38.3
2022-10-09T13:59:55.569Z,38.9
2022-10-09T14:01:11.793Z,39
2022-10-09T14:02:28.047Z,38.7
2022-10-09T14:03:44.284Z,40.1
2022-10-09T14:05:00.522Z,38.6
2022-10-09T14:06:16.759Z,39.8
2022-10-09T14:07:32.011Z,41.1
2022-10-09T14:08:48.241Z,38.9
2022-10-09T14:10:04.482Z,40.6
2022-10-09T14:11:20.732Z,41.6
2022-10-09T14:12:36.965Z,40.4
2022-10-09T14:13:53.000Z,41
2022-10-09T14:15:08.463Z,40.4
2022-10-09T14:16:24.696Z,39
2022-10-09T14:17:40.927Z,40
2022-10-09T14:18:57.181Z,39.6
2022-10-09T14:20:13.417Z,40.8
2022-10-09T14:21:29.644Z,39.9
2022-10-09T14:22:45.881Z,40.2
2022-10-09T14:24:02.126Z,39.7
2022-10-09T14:25:18.361Z,39.6
2022-10-09T14:26:34.601Z,40.2
2022-10-09T14:27:50.845Z,39.7
2022-10-09T14:29:07.085Z,40.3
2022-10-09T14:30:23.321Z,40
2022-10-09T14:31:38.586Z,39.7
2022-10-09T14:32:54.814Z,41.2
2022-10-09T14:34:11.050Z,39.9
2022-10-09T14:35:27.281Z,39.7
2022-10-09T14:36:43.537Z,40.1
2022-10-09T14:37:59.759Z,40.5
2022-10-09T14:39:15.997Z,40.3
2022-10-09T14:40:32.254Z,39.6
2022-10-09T14:41:48.476Z,40.4
2022-10-09T14:43:04.722Z,40.8
2022-10-09T14:44:20.959Z,41.6
2022-10-09T14:45:37.196Z,41.8
2022-10-09T14:46:53.436Z,41.4
2022-10-09T14:48:08.689Z,41.4
2022-10-09T14:49:24.936Z,41.7
2022-10-09T14:50:41.161Z,42.1
2022-10-09T14:51:57.399Z,42
2022-10-09T14:53:13.656Z,43.3
2022-10-09T14:54:29.877Z,43.2
2022-10-09T14:55:46.127Z,42.4
2022-10-09T14:57:02.361Z,42.1
2022-10-09T14:58:18.600Z,42.8
2022-10-09T14:59:34.839Z,42.2
2022-10-09T15:00:51.080Z,41.9
2022-10-09T15:02:07.318Z,43
2022-10-09T15:03:23.543Z,42
2022-10-09T15:04:38.801Z,43.3
2022-10-09T15:05:55.038Z,43
2022-10-09T15:07:11.289Z,43.1
2022-10-09T15:08:27.523Z,44.8
2022-10-09T15:09:43.753Z,44.4
2022-10-09T15:11:00.008Z,44.6
2022-10-09T15:12:16.234Z,45.7
2022-10-09T15:13:32.490Z,45.9
2022-10-09T15:14:48.724Z,46.5
2022-10-09T15:16:04.949Z,47.3
2022-10-09T15:17:21.187Z,48.5
2022-10-09T15:18:37.435Z,49.6
2022-10-09T15:19:53.675Z,50.3
2022-10-09T15:21:08.924Z,51
2022-10-09T15:22:25.158Z,51.3
2022-10-09T15:23:41.404Z,51.5
2022-10-09T15:24:57.635Z,53
2022-10-09T15:26:13.878Z,51.8
2022-10-09T15:27:30.128Z,52.7
2022-10-09T15:28:46.363Z,54
2022-10-09T15:30:02.594Z,53.6
2022-10-09T15:31:18.829Z,54.4
2022-10-09T15:32:35.067Z,54.8
2022-10-09T15:33:51.321Z,55.5
2022-10-09T15:35:07.541Z,53.9
2022-10-09T15:36:23.779Z,54.3
2022-10-09T15:37:39.040Z,54.3
2022-10-09T15:38:55.286Z,55
2022-10-09T15:40:11.527Z,55.5
2022-10-09T15:41:27.753Z,55.4
2022-10-09T15:42:43.995Z,56.1
2022-10-09T15:44:00.240Z,56.4
2022-10-09T15:45:16.468Z,56.2
2022-10-09T15:46:32.704Z,56.3
2022-10-09T15:47:48.956Z,57.3
2022-10-09T15:49:05.199Z,57
2022-10-09T15:50:21.430Z,57.4
2022-10-09T15:51:37.658Z,57.8
2022-10-09T15:52:53.907Z,59.1
2022-10-09T15:54:09.151Z,58.4
2022-10-09T15:55:25.390Z,58
2022-10-09T15:56:41.630Z,59.3
2022-10-09T15:57:57.881Z,59
2022-10-09T15:59:14.122Z,60.5
2022-10-09T16:00:30.350Z,60.6
2022-10-09T16:01:46.597Z,60.5
2022-10-09T16:03:02.836Z,60
2022-10-09T16:04:19.075Z,59.9
2022-10-09T16:05:35.314Z,60.4
2022-10-09T16:06:51.553Z,61.4
2022-10-09T16:08:07.786Z,61.7
2022-10-09T16:09:24.019Z,61
2022-10-09T16:10:39.286Z,61.8
2022-10-09T16:11:55.512Z,62.1
2022-10-09T16:13:11.753Z,62.8
2022-10-09T16:14:27.990Z,62.5
2022-10-09T16:15:44.220Z,63.2
2022-10-09T16:17:00.478Z,62.7
2022-10-09T16:18:16.706Z,63.2
2022-10-09T16:19:32.953Z,63
2022-10-09T16:20:49.191Z,63.2
2022-10-09T16:22:05.419Z,63.4
2022-10-09T16:23:21.668Z,64.2
2022-10-09T16:24:37.895Z,63.8
2022-10-09T16:25:54.132Z,63.4
2022-10-09T16:27:09.392Z,63.4
2022-10-09T16:28:25.635Z,64.7
2022-10-09T16:29:41.875Z,65.3
2022-10-09T16:30:58.105Z,65.4
2022-10-09T16:32:14.351Z,65.2
2022-10-09T16:33:30.592Z,64.5
2022-10-09T16:34:46.821Z,65.8
2022-10-09T16:36:03.058Z,66.2
2022-10-09T16:37:19.307Z,65.7
2022-10-09T16:38:35.527Z,65.6
2022-10-09T16:39:51.765Z,66
2022-10-09T16:41:08.023Z,65.5
2022-10-09T16:42:24.242Z,66.4
2022-10-09T16:43:39.506Z,67.4
2022-10-09T16:44:55.745Z,67.5
2022-10-09T16:46:11.988Z,66.8
2022-10-09T16:47:28.215Z,66.3
2022-10-09T16:48:44.451Z,66.8
2022-10-09T16:50:00.692Z,68.2
2022-10-09T16:51:16.946Z,68
2022-10-09T16:52:33.177Z,67.5
2022-10-09T16:53:49.407Z,68.3
2022-10-09T16:55:05.653Z,68.4
2022-10-09T16:56:21.899Z,69
2022-10-09T16:57:38.124Z,69.1
2022-10-09T16:58:54.364Z,69
2022-10-09T17:00:09.618Z,69.3
2022-10-09T17:01:25.870Z,68.8
2022-10-09T17:02:42.110Z,68.5
2022-10-09T17:03:58.332Z,69.4
2022-10-09T17:05:14.638Z,69.7
2022-10-09T17:06:30.927Z,69.9
2022-10-09T17:07:47.223Z,69
2022-10-09T17:09:03.505Z,69.6